createdAt,value
2018-10-04T00:00:40.457Z,101456.75
2018-10-04T00:03:07.956Z,101456.66
2018-10-04T00:05:35.848Z,101455.05
2018-10-04T00:08:04.753Z,101460.59
2018-10-04T00:10:32.769Z,101461.99
2018-10-04T00:13:00.737Z,101461.73
2018-10-04T00:15:29.646Z,101465.72
2018-10-04T00:17:57.545Z,101466.67
2018-10-04T00:33:20.864Z,101473.65
2018-10-04T00:35:49.723Z,101477.64
2018-10-04T00:38:16.638Z,101477.70
2018-10-04T00:40:43.581Z,101478.43
2018-10-04T00:43:10.497Z,101473.81
2018-10-04T00:45:37.463Z,101471.59
2018-10-04T00:48:04.292Z,101473.94
2018-10-04T00:50:31.261Z,101475.19
2018-10-04T00:52:59.165Z,101469.64
2018-10-04T00:55:26.127Z,101476.02
2018-10-04T00:57:53.971Z,101472.05
2018-10-04T01:00:20.907Z,101469.56
2018-10-04T01:02:47.854Z,101473.67
2018-10-04T01:05:14.845Z,101474.17
2018-10-04T01:07:44.785Z,101470.39
2018-10-04T01:10:15.315Z,101473.23
2018-10-04T01:12:42.200Z,101476.19
2018-10-04T01:15:10.059Z,101476.91
2018-10-04T01:17:36.974Z,101473.03
2018-10-04T01:20:08.383Z,101476.58
2018-10-04T01:22:39.918Z,101479.51
2018-10-04T01:25:06.893Z,101475.22
2018-10-04T01:27:33.908Z,101472.06
2018-10-04T01:30:06.123Z,101464.16
2018-10-04T01:32:33.029Z,101463.20
2018-10-04T01:35:00.921Z,101468.40
2018-10-04T01:37:27.873Z,101475.05
2018-10-04T01:39:54.839Z,101469.20
2018-10-04T01:42:23.692Z,101476.44
2018-10-04T01:44:50.633Z,101476.61
2018-10-04T01:47:17.624Z,101471.50
2018-10-04T01:49:44.592Z,101461.51
2018-10-04T01:52:11.543Z,101468.75
2018-10-04T01:54:38.524Z,101465.98
2018-10-04T01:57:05.543Z,101470.50
2018-10-04T01:59:33.547Z,101469.38
2018-10-04T02:02:01.404Z,101466.58
2018-10-04T02:04:28.338Z,101468.78
2018-10-04T02:06:55.212Z,101465.49
2018-10-04T02:09:22.087Z,101459.84
2018-10-04T02:11:51.501Z,101465.70
2018-10-04T02:14:18.668Z,101463.13
2018-10-04T02:16:45.572Z,101470.45
2018-10-04T02:19:12.515Z,101473.11
2018-10-04T02:21:39.395Z,101469.78
2018-10-04T02:24:06.365Z,101470.17
2018-10-04T02:26:34.220Z,101462.51
2018-10-04T02:29:01.143Z,101460.06
2018-10-04T02:31:28.087Z,101459.99
2018-10-04T02:33:56.003Z,101453.91
2018-10-04T02:36:24.863Z,101452.08
2018-10-04T02:38:51.782Z,101450.41
2018-10-04T02:41:20.683Z,101458.29
2018-10-04T02:43:47.655Z,101457.73
2018-10-04T02:46:14.644Z,101456.83
2018-10-04T02:48:41.611Z,101455.27
2018-10-04T02:51:08.580Z,101455.30
2018-10-04T02:53:39.556Z,101455.30
2018-10-04T02:56:14.126Z,101453.34
2018-10-04T02:58:44.635Z,101452.77
2018-10-04T03:01:11.584Z,101450.83
2018-10-04T03:03:41.947Z,101451.13
2018-10-04T03:06:09.176Z,101453.61
2018-10-04T03:08:38.063Z,101450.98
2018-10-04T03:11:05.063Z,101454.80
2018-10-04T03:13:35.090Z,101456.23
2018-10-04T03:16:02.060Z,101465.98
2018-10-04T03:18:30.954Z,101461.00
2018-10-04T03:20:57.952Z,101465.50
2018-10-04T03:23:25.919Z,101466.16
2018-10-04T03:25:52.879Z,101466.36
2018-10-04T03:28:23.277Z,101459.27
2018-10-04T03:30:53.799Z,101454.78
2018-10-04T03:33:20.779Z,101455.25
2018-10-04T03:35:47.746Z,101454.91
2018-10-04T03:38:14.747Z,101448.87
2018-10-04T03:40:41.693Z,101450.31
2018-10-04T03:43:09.496Z,101444.44
2018-10-04T03:45:36.460Z,101447.73
2018-10-04T03:48:03.430Z,101443.86
2018-10-04T03:50:30.348Z,101443.48
2018-10-04T03:52:57.250Z,101439.14
2018-10-04T03:55:31.846Z,101436.10
2018-10-04T03:58:02.365Z,101438.94
2018-10-04T04:00:29.375Z,101437.48
2018-10-04T04:02:56.310Z,101439.30
2018-10-04T04:05:23.266Z,101432.06
2018-10-04T04:07:51.155Z,101431.63
2018-10-04T04:10:18.130Z,101423.11
2018-10-04T04:12:46.047Z,101432.00
2018-10-04T04:15:14.043Z,101428.42
2018-10-04T04:17:42.032Z,101432.09
2018-10-04T04:20:08.978Z,101435.53
2018-10-04T04:22:35.960Z,101437.66
2018-10-04T04:25:03.012Z,101437.10
2018-10-04T04:27:33.043Z,101441.94
2018-10-04T04:30:00.971Z,101445.50
2018-10-04T04:32:27.860Z,101444.21
2018-10-04T04:34:58.272Z,101435.55
2018-10-04T04:37:25.184Z,101433.59
2018-10-04T04:39:56.453Z,101433.34
2018-10-04T04:42:27.388Z,101434.08
2018-10-04T04:44:58.805Z,101432.30
2018-10-04T04:47:29.023Z,101432.22
2018-10-04T04:49:56.019Z,101427.61
2018-10-04T04:52:22.961Z,101423.88
2018-10-04T04:55:36.563Z,101424.34
2018-10-04T04:58:05.610Z,101431.03
2018-10-04T05:00:33.543Z,101429.18
2018-10-04T05:03:00.551Z,101433.33
2018-10-04T05:05:27.936Z,101437.86
2018-10-04T05:07:56.978Z,101437.60
2018-10-04T05:10:24.389Z,101443.23
2018-10-04T05:12:52.889Z,101441.56
2018-10-04T05:15:19.783Z,101449.36
2018-10-04T05:17:46.798Z,101440.05
2018-10-04T05:20:14.111Z,101435.65
2018-10-04T05:22:41.001Z,101437.37
2018-10-04T05:25:07.963Z,101430.69
2018-10-04T05:27:34.939Z,101441.88
2018-10-04T05:30:02.963Z,101435.00
2018-10-04T05:32:31.228Z,101438.85
2018-10-04T05:34:58.515Z,101436.44
2018-10-04T05:37:25.497Z,101436.53
2018-10-04T05:39:52.447Z,101433.70
2018-10-04T05:42:19.511Z,101440.50
2018-10-04T05:44:54.980Z,101439.31
2018-10-04T05:47:29.340Z,101438.52
2018-10-04T05:49:56.298Z,101436.11
2018-10-04T05:52:24.235Z,101437.52
2018-10-04T05:54:51.168Z,101442.63
2018-10-04T05:57:18.171Z,101443.48
2018-10-04T06:00:10.448Z,101442.73
2018-10-04T06:02:37.450Z,101442.81
2018-10-04T06:05:04.452Z,101435.88
2018-10-04T06:07:31.324Z,101438.95
2018-10-04T06:09:58.287Z,101437.45
2018-10-04T06:12:25.267Z,101441.96
2018-10-04T06:14:52.321Z,101442.72
2018-10-04T06:17:19.227Z,101445.39
2018-10-04T06:19:48.143Z,101446.81
2018-10-04T06:22:15.106Z,101450.33
2018-10-04T06:24:42.147Z,101442.80
2018-10-04T06:27:09.082Z,101450.64
2018-10-04T06:29:36.039Z,101444.04
2018-10-04T06:32:04.973Z,101443.52
2018-10-04T06:34:31.916Z,101447.30
2018-10-04T06:36:58.889Z,101445.20
2018-10-04T06:39:27.759Z,101448.81
2018-10-04T06:41:54.966Z,101449.28
2018-10-04T06:44:21.948Z,101445.95
2018-10-04T06:46:48.940Z,101450.85
2018-10-04T06:49:15.889Z,101450.13
2018-10-04T06:51:43.771Z,101442.71
2018-10-04T06:54:10.639Z,101448.30
2018-10-04T06:56:37.652Z,101446.03
2018-10-04T06:59:05.648Z,101443.40
2018-10-04T07:01:32.571Z,101440.08
2018-10-04T07:03:59.555Z,101446.09
2018-10-04T07:06:26.523Z,101450.97
2018-10-04T07:08:53.480Z,101450.70
2018-10-04T07:11:20.455Z,101454.33
2018-10-04T07:13:47.321Z,101453.87
2018-10-04T07:16:14.235Z,101456.98
2018-10-04T07:18:41.179Z,101459.98
2018-10-04T07:21:08.306Z,101461.84
2018-10-04T07:23:35.171Z,101464.43
2018-10-04T07:26:02.043Z,101474.72
2018-10-04T07:28:28.919Z,101478.66
2018-10-04T07:30:55.767Z,101473.25
2018-10-04T07:33:22.645Z,101466.19
2018-10-04T07:35:49.511Z,101466.80
2018-10-04T07:38:16.419Z,101473.50
2018-10-04T07:40:43.311Z,101466.18
2018-10-04T07:43:10.256Z,101469.05
2018-10-04T07:45:37.115Z,101473.20
2018-10-04T07:48:04.129Z,101469.95
2018-10-04T07:50:33.029Z,101472.93
2018-10-04T07:52:59.975Z,101473.73
2018-10-04T07:55:26.863Z,101477.53
2018-10-04T07:57:53.730Z,101475.62
2018-10-04T08:00:20.642Z,101475.20
2018-10-04T08:02:48.552Z,101476.91
2018-10-04T08:05:15.509Z,101480.77
2018-10-04T08:07:42.452Z,101482.42
2018-10-04T08:10:11.356Z,101492.53
2018-10-04T08:12:38.247Z,101483.31
2018-10-04T08:15:05.133Z,101484.84
2018-10-04T08:17:32.002Z,101475.73
2018-10-04T08:19:59.028Z,101476.30
2018-10-04T08:22:25.984Z,101477.13
2018-10-04T08:24:52.951Z,101477.46
2018-10-04T08:27:20.840Z,101475.84
2018-10-04T08:29:47.768Z,101480.65
2018-10-04T08:34:49.757Z,101483.69
2018-10-04T08:37:18.667Z,101484.69
2018-10-04T08:39:45.731Z,101481.12
2018-10-04T08:42:14.657Z,101479.76
2018-10-04T08:44:41.655Z,101486.00
2018-10-04T08:49:45.638Z,101480.56
2018-10-04T08:52:18.211Z,101476.58
2018-10-04T08:54:45.179Z,101471.45
2018-10-04T08:57:12.173Z,101474.10
2018-10-04T08:59:39.092Z,101478.17
2018-10-04T09:02:05.979Z,101475.41
2018-10-04T09:04:40.505Z,101468.19
2018-10-04T09:07:08.470Z,101468.66
2018-10-04T09:09:35.427Z,101465.48
2018-10-04T09:12:03.399Z,101467.83
2018-10-04T09:14:30.382Z,101464.81
2018-10-04T09:16:57.330Z,101456.91
2018-10-04T09:19:26.285Z,101464.93
2018-10-04T09:21:53.227Z,101457.09
2018-10-04T09:24:21.099Z,101466.50
2018-10-04T09:26:47.983Z,101461.17
2018-10-04T09:29:14.986Z,101457.67
2018-10-04T09:31:45.055Z,101460.13
2018-10-04T09:34:15.355Z,101454.88
2018-10-04T09:36:42.339Z,101453.72
2018-10-04T09:39:10.715Z,101449.76
2018-10-04T09:41:44.662Z,101458.81
2018-10-04T09:44:11.634Z,101450.73
2018-10-04T09:46:38.558Z,101450.70
2018-10-04T09:49:05.540Z,101453.56
2018-10-04T09:51:38.215Z,101445.09
2018-10-04T09:54:06.168Z,101445.25
2018-10-04T09:56:38.851Z,101449.38
2018-10-04T09:59:07.881Z,101443.34
2018-10-04T10:01:41.357Z,101442.23
2018-10-04T10:04:09.511Z,101438.94
2018-10-04T10:06:36.503Z,101441.42
2018-10-04T10:09:05.912Z,101425.77
2018-10-04T10:11:32.851Z,101420.09
2018-10-04T10:13:59.753Z,101426.36
2018-10-04T10:16:26.619Z,101424.09
2018-10-04T10:18:55.569Z,101427.34
2018-10-04T10:23:58.540Z,101418.35
2018-10-04T10:26:26.515Z,101423.84
2018-10-04T10:28:54.384Z,101421.95
2018-10-04T10:31:21.274Z,101413.94
2018-10-04T10:33:48.304Z,101408.31
2018-10-04T10:36:15.275Z,101405.35
2018-10-04T10:38:42.188Z,101399.52
2018-10-04T10:41:09.431Z,101402.81
2018-10-04T10:43:38.336Z,101397.82
2018-10-04T10:46:07.986Z,101397.05
2018-10-04T10:48:35.176Z,101400.61
2018-10-04T10:51:02.210Z,101400.66
2018-10-04T10:53:30.270Z,101398.01
2018-10-04T10:55:57.236Z,101397.87
2018-10-04T10:58:24.264Z,101381.59
2018-10-04T11:00:51.168Z,101384.71
2018-10-04T11:03:28.361Z,101384.05
2018-10-04T11:05:55.295Z,101381.27
2018-10-04T11:08:23.344Z,101370.73
2018-10-04T11:10:50.368Z,101369.92
2018-10-04T11:13:17.249Z,101365.78
2018-10-04T11:15:47.518Z,101363.31
2018-10-04T11:18:16.545Z,101362.02
2018-10-04T11:20:43.473Z,101362.49
2018-10-04T11:23:11.515Z,101360.19
2018-10-04T11:25:39.469Z,101348.14
2018-10-04T11:28:08.083Z,101342.99
2018-10-04T11:30:34.989Z,101333.89
2018-10-04T11:33:01.956Z,101335.76
2018-10-04T11:35:28.946Z,101332.97
2018-10-04T11:38:04.183Z,101336.41
2018-10-04T11:40:31.211Z,101324.21
2018-10-04T11:42:58.154Z,101315.02
2018-10-04T11:45:38.345Z,101316.47
2018-10-04T11:48:09.056Z,101312.52
2018-10-04T11:50:36.001Z,101316.41
2018-10-04T11:53:03.035Z,101308.32
2018-10-04T11:55:30.024Z,101311.95
2018-10-04T11:57:57.028Z,101305.52
2018-10-04T12:00:25.433Z,101299.73
2018-10-04T12:02:53.192Z,101303.97
2018-10-04T12:05:21.512Z,101293.88
2018-10-04T12:07:49.523Z,101293.42
2018-10-04T12:10:16.469Z,101289.73
2018-10-04T12:12:43.344Z,101278.31
2018-10-04T12:15:10.191Z,101271.48
2018-10-04T12:17:37.933Z,101270.80
2018-10-04T12:20:06.329Z,101277.91
2018-10-04T12:22:34.347Z,101273.63
2018-10-04T12:25:01.530Z,101276.11
2018-10-04T12:27:28.367Z,101271.78
2018-10-04T12:29:56.398Z,101275.76
2018-10-04T12:32:32.954Z,101267.70
2018-10-04T12:35:01.499Z,101261.97
2018-10-04T12:37:30.600Z,101251.88
2018-10-04T12:39:57.727Z,101257.47
2018-10-04T12:42:25.548Z,101258.05
2018-10-04T12:44:53.590Z,101261.36
2018-10-04T12:47:20.552Z,101251.20
2018-10-04T12:49:47.598Z,101249.02
2018-10-04T12:52:14.543Z,101241.53
2018-10-04T12:54:42.729Z,101237.91
2018-10-04T12:57:12.910Z,101237.55
2018-10-04T12:59:42.093Z,101227.53
2018-10-04T13:02:09.866Z,101225.77
2018-10-04T13:04:37.915Z,101220.47
2018-10-04T13:07:07.091Z,101223.22
2018-10-04T13:09:33.972Z,101225.62
2018-10-04T13:12:00.959Z,101232.70
2018-10-04T13:14:27.940Z,101223.13
2018-10-04T13:16:55.811Z,101223.06
2018-10-04T13:19:22.775Z,101211.47
2018-10-04T13:21:50.701Z,101216.48
2018-10-04T13:24:17.722Z,101211.22
2018-10-04T13:26:44.780Z,101204.66
2018-10-04T13:29:13.887Z,101203.57
2018-10-04T13:31:40.882Z,101199.87
2018-10-04T13:34:07.847Z,101197.94
2018-10-04T13:36:34.808Z,101199.75
2018-10-04T13:39:01.767Z,101193.98
2018-10-04T13:41:30.734Z,101193.70
2018-10-04T13:43:57.658Z,101187.33
2018-10-04T13:46:25.687Z,101188.28
2018-10-04T13:48:52.644Z,101193.18
2018-10-04T13:51:20.655Z,101184.06
2018-10-04T13:53:47.585Z,101186.91
2018-10-04T13:56:14.455Z,101185.59
2018-10-04T13:58:41.447Z,101183.91
2018-10-04T14:01:09.134Z,101181.48
2018-10-04T14:03:36.100Z,101173.46
2018-10-04T14:06:03.124Z,101172.86
2018-10-04T14:08:30.123Z,101174.34
2018-10-04T14:10:57.111Z,101173.08
2018-10-04T14:13:24.126Z,101165.52
2018-10-04T14:15:51.017Z,101162.59
2018-10-04T14:18:17.992Z,101155.33
2018-10-04T14:20:44.885Z,101155.69
2018-10-04T14:23:11.828Z,101152.54
2018-10-04T14:25:38.750Z,101153.52
2018-10-04T14:28:05.660Z,101149.73
2018-10-04T14:30:32.651Z,101155.92
2018-10-04T14:33:00.622Z,101149.34
2018-10-04T14:35:27.636Z,101148.32
2018-10-04T14:37:54.571Z,101139.98
2018-10-04T14:40:21.460Z,101137.15
2018-10-04T14:42:49.376Z,101137.41
2018-10-04T14:45:16.311Z,101140.77
2018-10-04T14:47:43.307Z,101136.01
2018-10-04T14:50:10.230Z,101131.30
2018-10-04T14:52:37.107Z,101133.70
2018-10-04T14:55:04.108Z,101130.55
2018-10-04T14:57:31.036Z,101121.33
2018-10-04T14:59:57.970Z,101124.38
2018-10-04T15:02:24.887Z,101122.92
2018-10-04T15:04:51.787Z,101121.34
2018-10-04T15:07:18.873Z,101126.16
2018-10-04T15:09:45.811Z,101124.01
2018-10-04T15:12:12.692Z,101116.58
2018-10-04T15:14:40.029Z,101114.62
2018-10-04T15:17:06.847Z,101108.34
2018-10-04T15:19:34.037Z,101108.91
2018-10-04T15:22:00.927Z,101105.06
2018-10-04T15:24:27.931Z,101100.93
2018-10-04T15:26:54.780Z,101094.37
2018-10-04T15:29:21.747Z,101096.12
2018-10-04T15:31:48.675Z,101096.06
2018-10-04T15:34:15.726Z,101094.40
2018-10-04T15:36:42.607Z,101095.97
2018-10-04T15:39:10.198Z,101096.03
2018-10-04T15:41:37.567Z,101095.52
2018-10-04T15:44:04.571Z,101089.81
2018-10-04T15:46:31.452Z,101094.66
2018-10-04T15:48:58.378Z,101090.47
2018-10-04T15:51:27.362Z,101086.67
2018-10-04T15:53:56.251Z,101089.23
2018-10-04T15:56:23.150Z,101087.52
2018-10-04T15:58:50.103Z,101088.83
2018-10-04T16:01:17.047Z,101082.55
2018-10-04T16:03:44.128Z,101080.11
2018-10-04T16:06:11.144Z,101087.36
2018-10-04T16:08:38.205Z,101087.08
2018-10-04T16:11:05.279Z,101085.72
2018-10-04T16:13:32.191Z,101088.23
2018-10-04T16:16:00.068Z,101085.70
2018-10-04T16:18:27.055Z,101089.59
2018-10-04T16:20:54.099Z,101092.73
2018-10-04T16:23:21.104Z,101087.21
2018-10-04T16:25:48.071Z,101085.96
2018-10-04T16:28:15.962Z,101087.34
2018-10-04T16:30:42.847Z,101084.09
2018-10-04T16:33:09.709Z,101082.69
2018-10-04T16:35:36.675Z,101085.48
2018-10-04T16:38:03.561Z,101084.61
2018-10-04T16:40:30.510Z,101087.52
2018-10-04T16:42:57.487Z,101086.09
2018-10-04T16:45:24.483Z,101078.70
2018-10-04T16:47:51.432Z,101075.91
2018-10-04T16:50:19.319Z,101079.06
2018-10-04T16:52:46.194Z,101077.78
2018-10-04T16:55:13.063Z,101077.78
2018-10-04T16:57:40.095Z,101072.83
2018-10-04T17:00:07.020Z,101079.08
2018-10-04T17:02:33.981Z,101076.46
2018-10-04T17:05:00.855Z,101081.38
2018-10-04T17:07:28.860Z,101089.88
2018-10-04T17:09:55.877Z,101090.81
2018-10-04T17:12:24.254Z,101097.66
2018-10-04T17:14:55.439Z,101092.30
2018-10-04T17:17:22.650Z,101090.77
2018-10-04T17:19:49.611Z,101094.19
2018-10-04T17:22:16.722Z,101093.16
2018-10-04T17:24:43.663Z,101096.09
2018-10-04T17:27:10.787Z,101098.89
2018-10-04T17:29:38.203Z,101095.69
2018-10-04T17:32:05.024Z,101100.65
2018-10-04T17:34:32.032Z,101085.55
2018-10-04T17:36:58.983Z,101086.77
2018-10-04T17:39:25.955Z,101089.47
2018-10-04T17:41:52.933Z,101082.66
2018-10-04T17:44:19.916Z,101085.22
2018-10-04T17:46:46.963Z,101080.77
2018-10-04T17:49:13.876Z,101076.98
2018-10-04T17:51:40.835Z,101077.64
2018-10-04T17:54:09.758Z,101079.77
2018-10-04T17:56:36.706Z,101078.68
2018-10-04T17:59:03.696Z,101077.64
2018-10-04T18:01:30.651Z,101074.28
2018-10-04T18:03:57.608Z,101083.38
2018-10-04T18:06:25.569Z,101082.20
2018-10-04T18:08:52.711Z,101078.02
2018-10-04T18:11:19.721Z,101085.97
2018-10-04T18:13:46.690Z,101084.32
2018-10-04T18:16:13.579Z,101085.92
2018-10-04T18:18:40.537Z,101080.77
2018-10-04T18:21:07.403Z,101083.98
2018-10-04T18:23:34.592Z,101075.98
2018-10-04T18:26:01.499Z,101075.40
2018-10-04T18:28:28.524Z,101075.35
2018-10-04T18:30:55.437Z,101079.56
2018-10-04T18:33:22.378Z,101074.34
2018-10-04T18:35:50.309Z,101075.73
2018-10-04T18:38:17.307Z,101079.06
2018-10-04T18:40:44.207Z,101078.55
2018-10-04T18:43:11.132Z,101072.06
2018-10-04T18:45:38.404Z,101078.17
2018-10-04T18:48:05.359Z,101076.72
2018-10-04T18:50:32.220Z,101074.19
2018-10-04T18:53:00.211Z,101085.22
2018-10-04T18:55:27.107Z,101078.24
2018-10-04T18:57:54.038Z,101079.15
2018-10-04T19:00:20.983Z,101072.90
2018-10-04T19:02:47.955Z,101078.05
2018-10-04T19:05:14.972Z,101078.72
2018-10-04T19:07:41.947Z,101076.92
2018-10-04T19:10:08.866Z,101078.31
2018-10-04T19:12:35.949Z,101074.59
2018-10-04T19:15:02.819Z,101078.58
2018-10-04T19:17:29.785Z,101075.02
2018-10-04T19:20:02.703Z,101074.58
2018-10-04T19:22:29.703Z,101076.12
2018-10-04T19:24:56.630Z,101073.90
2018-10-04T19:27:24.611Z,101078.49
2018-10-04T19:29:51.496Z,101076.59
2018-10-04T19:32:18.387Z,101076.24
2018-10-04T19:34:46.265Z,101077.06
2018-10-04T19:37:13.238Z,101077.78
2018-10-04T19:39:40.225Z,101086.23
2018-10-04T19:42:07.286Z,101081.77
2018-10-04T19:44:34.635Z,101080.09
2018-10-04T19:47:01.551Z,101082.64
2018-10-04T19:49:28.495Z,101077.89
2018-10-04T19:51:55.405Z,101079.27
2018-10-04T19:54:22.353Z,101084.15
2018-10-04T19:56:49.306Z,101089.31
2018-10-04T19:59:16.201Z,101084.92
2018-10-04T20:01:44.064Z,101090.03
2018-10-04T20:04:10.977Z,101092.84
2018-10-04T20:06:38.951Z,101092.16
2018-10-04T20:09:07.290Z,101087.35
2018-10-04T20:11:34.132Z,101094.16
2018-10-04T20:14:01.073Z,101089.55
2018-10-04T20:16:28.045Z,101094.33
2018-10-04T20:18:55.040Z,101091.13
2018-10-04T20:21:21.992Z,101092.92
2018-10-04T20:23:48.964Z,101092.66
2018-10-04T20:26:15.927Z,101095.13
2018-10-04T20:28:42.908Z,101094.64
2018-10-04T20:31:09.913Z,101092.22
2018-10-04T20:33:37.886Z,101095.50
2018-10-04T20:36:04.836Z,101094.12
2018-10-04T20:38:31.803Z,101091.96
2018-10-04T20:40:58.664Z,101098.47
2018-10-04T20:43:25.549Z,101088.31
2018-10-04T20:45:52.515Z,101090.58
2018-10-04T20:48:19.398Z,101084.89
2018-10-04T20:50:46.355Z,101080.77
2018-10-04T20:53:13.401Z,101079.20
2018-10-04T20:55:40.291Z,101085.00
2018-10-04T20:58:07.151Z,101071.85
2018-10-04T21:00:35.059Z,101081.42
2018-10-04T21:03:02.965Z,101075.31
2018-10-04T21:05:29.926Z,101082.56
2018-10-04T21:07:58.823Z,101081.52
2018-10-04T21:10:25.701Z,101079.62
2018-10-04T21:12:52.575Z,101080.05
2018-10-04T21:15:21.491Z,101077.31
2018-10-04T21:17:49.375Z,101070.38
2018-10-04T21:20:16.246Z,101066.38
2018-10-04T21:22:43.310Z,101078.09
2018-10-04T21:25:10.237Z,101072.92
2018-10-04T21:27:38.202Z,101079.64
2018-10-04T21:30:06.578Z,101070.06
2018-10-04T21:32:34.516Z,101070.73
2018-10-04T21:35:05.889Z,101069.77
2018-10-04T21:37:32.819Z,101072.18
2018-10-04T21:39:59.709Z,101071.33
2018-10-04T21:42:26.567Z,101071.30
2018-10-04T21:44:53.527Z,101076.73
2018-10-04T21:47:20.439Z,101072.19
2018-10-04T21:49:47.384Z,101073.27
2018-10-04T21:52:14.339Z,101077.05
2018-10-04T21:54:45.307Z,101073.39
2018-10-04T21:57:12.294Z,101079.77
2018-10-04T21:59:39.363Z,101077.05
2018-10-04T22:02:06.359Z,101071.84
2018-10-04T22:04:38.689Z,101064.91
2018-10-04T22:07:05.617Z,101063.17
2018-10-04T22:09:32.467Z,101072.57
2018-10-04T22:11:59.436Z,101066.25
2018-10-04T22:14:26.403Z,101061.17
2018-10-04T22:16:53.385Z,101057.56
2018-10-04T22:19:20.348Z,101059.25
2018-10-04T22:21:47.351Z,101056.59
2018-10-04T22:24:14.281Z,101056.45
2018-10-04T22:26:41.148Z,101055.72
2018-10-04T22:29:08.110Z,101054.17
2018-10-04T22:31:34.982Z,101052.52
2018-10-04T22:34:01.899Z,101050.84
2018-10-04T22:36:28.823Z,101048.15
2018-10-04T22:38:55.703Z,101044.47
2018-10-04T22:41:22.715Z,101039.58
2018-10-04T22:43:50.254Z,101042.88
2018-10-04T22:46:17.142Z,101036.98
2018-10-04T22:48:45.044Z,101038.38
2018-10-04T22:51:11.983Z,101036.63
2018-10-04T22:53:38.956Z,101032.64
2018-10-04T22:56:06.227Z,101028.73
2018-10-04T22:58:33.100Z,101019.29
2018-10-04T23:01:02.050Z,101025.85
2018-10-04T23:03:29.012Z,101022.08
2018-10-04T23:05:55.949Z,101017.48
2018-10-04T23:08:22.931Z,101015.60
2018-10-04T23:10:49.787Z,101011.02
2018-10-04T23:13:17.725Z,101015.03
2018-10-04T23:15:44.667Z,101009.61
2018-10-04T23:18:11.527Z,101006.67
2018-10-04T23:20:38.779Z,101007.70
2018-10-04T23:23:05.803Z,101003.23
2018-10-04T23:25:32.747Z,101002.64
2018-10-04T23:27:59.599Z,101004.68
2018-10-04T23:30:28.543Z,101006.55
2018-10-04T23:32:55.535Z,101006.91
2018-10-04T23:35:22.511Z,101003.27
2018-10-04T23:37:49.476Z,101002.20
2018-10-04T23:40:16.419Z,101003.81
2018-10-04T23:42:43.279Z,101000.95
2018-10-04T23:45:10.144Z,101002.02
2018-10-04T23:47:38.045Z,101003.66
2018-10-04T23:50:05.052Z,101003.97
2018-10-04T23:52:32.014Z,101010.69
2018-10-04T23:54:58.858Z,101006.48
2018-10-04T23:57:25.699Z,101004.13
2018-10-04T23:59:52.606Z,100996.94
